createdAt,value
2019-04-22T00:00:32.457Z,1015.28
2019-04-22T00:01:31.250Z,1015.28
2019-04-22T00:02:26.455Z,1015.26
2019-04-22T00:03:36.080Z,1015.31
2019-04-22T00:04:40.228Z,1015.28
2019-04-22T00:05:52.463Z,1015.26
2019-04-22T00:06:50.308Z,1015.23
2019-04-22T00:07:48.220Z,1015.21
2019-04-22T00:08:49.183Z,1015.24
2019-04-22T00:09:54.953Z,1015.23
2019-04-22T00:10:59.000Z,1015.22
2019-04-22T00:11:54.666Z,1015.20
2019-04-22T00:12:54.637Z,1015.22
2019-04-22T00:13:51.949Z,1015.22
2019-04-22T00:14:48.500Z,1015.23
2019-04-22T00:15:41.809Z,1015.17
2019-04-22T00:16:51.945Z,1015.15
2019-04-22T00:19:13.265Z,1015.17
2019-04-22T00:20:54.444Z,1015.11
2019-04-22T00:21:55.217Z,1015.13
2019-04-22T00:22:51.610Z,1015.09
2019-04-22T00:23:53.090Z,1015.07
2019-04-22T00:24:51.227Z,1015.06
2019-04-22T00:25:57.345Z,1015.11
2019-04-22T00:26:50.215Z,1015.09
2019-04-22T00:27:57.238Z,1015.03
2019-04-22T00:29:03.950Z,1015.05
2019-04-22T00:30:05.419Z,1015.01
2019-04-22T00:30:51.539Z,1014.99
2019-04-22T00:31:46.184Z,1015.01
2019-04-22T00:32:49.516Z,1015.01
2019-04-22T00:33:48.692Z,1014.98
2019-04-22T00:34:48.367Z,1014.99
2019-04-22T00:35:49.358Z,1014.93
2019-04-22T00:36:48.278Z,1014.95
2019-04-22T00:37:53.696Z,1014.96
2019-04-22T00:38:54.327Z,1014.96
2019-04-22T00:39:51.436Z,1014.91
2019-04-22T00:40:52.580Z,1014.90
2019-04-22T00:41:50.514Z,1014.90
2019-04-22T00:42:53.567Z,1014.85
2019-04-22T00:44:00.403Z,1014.89
2019-04-22T00:44:51.750Z,1014.84
2019-04-22T00:45:53.627Z,1014.85
2019-04-22T00:46:55.681Z,1014.86
2019-04-22T00:47:43.699Z,1014.84
2019-04-22T00:48:53.439Z,1014.84
2019-04-22T00:50:55.736Z,1014.81
2019-04-22T00:53:11.671Z,1014.75
2019-04-22T00:53:53.096Z,1014.77
2019-04-22T00:54:55.803Z,1014.79
2019-04-22T00:55:55.562Z,1014.79
2019-04-22T00:56:50.752Z,1014.78
2019-04-22T00:57:46.413Z,1014.75
2019-04-22T00:58:48.484Z,1014.76
2019-04-22T00:59:52.020Z,1014.80
2019-04-22T01:00:58.759Z,1014.76
2019-04-22T01:01:52.569Z,1014.76
2019-04-22T01:02:54.321Z,1014.76
2019-04-22T01:04:55.981Z,1014.74
2019-04-22T01:05:48.221Z,1014.73
2019-04-22T01:06:51.614Z,1014.75
2019-04-22T01:07:49.953Z,1014.72
2019-04-22T01:09:05.797Z,1014.73
2019-04-22T01:09:52.015Z,1014.69
2019-04-22T01:10:54.036Z,1014.72
2019-04-22T01:11:44.603Z,1014.67
2019-04-22T01:12:49.987Z,1014.71
2019-04-22T01:13:50.072Z,1014.69
2019-04-22T01:14:47.287Z,1014.71
2019-04-22T01:15:47.556Z,1014.70
2019-04-22T01:16:52.107Z,1014.72
2019-04-22T01:17:52.652Z,1014.66
2019-04-22T01:18:49.033Z,1014.68
2019-04-22T01:19:58.706Z,1014.68
2019-04-22T01:21:46.786Z,1014.69
2019-04-22T01:22:50.494Z,1014.67
2019-04-22T01:23:50.639Z,1014.64
2019-04-22T01:24:44.873Z,1014.63
2019-04-22T01:25:47.825Z,1014.64
2019-04-22T01:26:38.827Z,1014.63
2019-04-22T01:27:41.855Z,1014.60
2019-04-22T01:28:39.542Z,1014.59
2019-04-22T01:29:39.858Z,1014.61
2019-04-22T01:30:35.002Z,1014.57
2019-04-22T01:31:29.328Z,1014.58
2019-04-22T01:32:34.421Z,1014.58
2019-04-22T01:33:33.114Z,1014.54
2019-04-22T01:34:40.358Z,1014.52
2019-04-22T01:35:35.802Z,1014.56
2019-04-22T01:36:42.947Z,1014.51
2019-04-22T01:37:45.882Z,1014.49
2019-04-22T01:38:56.325Z,1014.51
2019-04-22T01:39:50.066Z,1014.49
2019-04-22T01:40:54.152Z,1014.48
2019-04-22T01:41:55.394Z,1014.47
2019-04-22T01:42:57.570Z,1014.46
2019-04-22T01:43:58.825Z,1014.46
2019-04-22T01:45:06.964Z,1014.46
2019-04-22T01:45:54.389Z,1014.42
2019-04-22T01:46:49.400Z,1014.39
2019-04-22T01:47:53.300Z,1014.44
2019-04-22T01:48:54.311Z,1014.43
2019-04-22T01:49:49.516Z,1014.42
2019-04-22T01:50:49.644Z,1014.41
2019-04-22T01:52:52.107Z,1014.38
2019-04-22T01:53:50.282Z,1014.34
2019-04-22T01:54:54.640Z,1014.34
2019-04-22T01:55:55.541Z,1014.35
2019-04-22T01:57:47.614Z,1014.29
2019-04-22T01:58:44.316Z,1014.32
2019-04-22T01:59:40.382Z,1014.31
2019-04-22T02:00:58.238Z,1014.29
2019-04-22T02:01:50.959Z,1014.30
2019-04-22T02:02:49.288Z,1014.27
2019-04-22T02:03:57.942Z,1014.29
2019-04-22T02:04:53.292Z,1014.26
2019-04-22T02:05:50.534Z,1014.25
2019-04-22T02:06:48.210Z,1014.24
2019-04-22T02:07:48.256Z,1014.18
2019-04-22T02:08:52.730Z,1014.21
2019-04-22T02:09:53.312Z,1014.22
2019-04-22T02:11:54.460Z,1014.15
2019-04-22T02:12:53.228Z,1014.10
2019-04-22T02:13:52.270Z,1014.10
2019-04-22T02:15:06.587Z,1014.13
2019-04-22T02:15:53.797Z,1014.14
2019-04-22T02:17:58.036Z,1014.10
2019-04-22T02:18:53.091Z,1014.09
2019-04-22T02:19:53.092Z,1014.08
2019-04-22T02:20:50.324Z,1014.07
2019-04-22T02:21:51.662Z,1014.06
2019-04-22T02:23:00.520Z,1014.01
2019-04-22T02:23:56.005Z,1014.03
2019-04-22T02:24:54.287Z,1014.03
2019-04-22T02:25:57.939Z,1014.02
2019-04-22T02:26:51.917Z,1014.05
2019-04-22T02:27:56.502Z,1014.04
2019-04-22T02:28:45.787Z,1014.03
2019-04-22T02:29:47.657Z,1014.07
2019-04-22T02:31:18.684Z,1014.01
2019-04-22T02:31:59.551Z,1014.02
2019-04-22T02:33:18.413Z,1013.99
2019-04-22T02:36:08.620Z,1014.03
2019-04-22T02:36:54.879Z,1014.00
2019-04-22T02:38:04.713Z,1014.03
2019-04-22T02:39:55.439Z,1013.98
2019-04-22T02:41:52.490Z,1013.93
2019-04-22T02:43:01.954Z,1013.90
2019-04-22T02:44:03.174Z,1013.90
2019-04-22T02:46:13.455Z,1013.87
2019-04-22T02:47:08.396Z,1013.85
2019-04-22T02:49:07.404Z,1013.87
2019-04-22T02:50:01.785Z,1013.82
2019-04-22T02:51:02.545Z,1013.81
2019-04-22T02:51:43.493Z,1013.79
2019-04-22T02:52:51.004Z,1013.77
2019-04-22T02:54:27.069Z,1013.77
2019-04-22T02:54:54.561Z,1013.75
2019-04-22T02:56:01.692Z,1013.78
2019-04-22T02:56:48.788Z,1013.73
2019-04-22T02:57:47.129Z,1013.74
2019-04-22T02:59:12.390Z,1013.73
2019-04-22T03:00:01.489Z,1013.74
2019-04-22T03:01:01.184Z,1013.69
2019-04-22T03:01:51.410Z,1013.71
2019-04-22T03:03:18.344Z,1013.70
2019-04-22T03:04:57.981Z,1013.70
2019-04-22T03:07:58.236Z,1013.69
2019-04-22T03:09:01.338Z,1013.66
2019-04-22T03:09:59.586Z,1013.68
2019-04-22T03:11:04.029Z,1013.65
2019-04-22T03:12:06.230Z,1013.63
2019-04-22T03:12:56.334Z,1013.65
2019-04-22T03:14:03.297Z,1013.64
2019-04-22T03:14:48.363Z,1013.66
2019-04-22T03:15:59.609Z,1013.61
2019-04-22T03:17:10.291Z,1013.60
2019-04-22T03:17:58.446Z,1013.65
2019-04-22T03:19:05.808Z,1013.61
2019-04-22T03:21:00.109Z,1013.63
2019-04-22T03:21:54.868Z,1013.62
2019-04-22T03:22:59.969Z,1013.61
2019-04-22T03:24:08.877Z,1013.61
2019-04-22T03:27:44.166Z,1013.60
2019-04-22T03:28:57.152Z,1013.59
2019-04-22T03:30:16.349Z,1013.59
2019-04-22T03:34:39.547Z,1013.49
2019-04-22T03:36:26.171Z,1013.49
2019-04-22T03:39:19.450Z,1013.48
2019-04-22T03:40:07.235Z,1013.45
2019-04-22T03:41:13.481Z,1013.47
2019-04-22T03:42:06.795Z,1013.46
2019-04-22T03:42:56.189Z,1013.46
2019-04-22T03:44:08.275Z,1013.47
2019-04-22T03:45:00.387Z,1013.48
2019-04-22T03:45:51.693Z,1013.48
2019-04-22T03:47:02.414Z,1013.48
2019-04-22T03:49:10.874Z,1013.47
2019-04-22T03:50:04.435Z,1013.49
2019-04-22T03:50:42.514Z,1013.47
2019-04-22T03:53:01.438Z,1013.46
2019-04-22T03:54:02.774Z,1013.46
2019-04-22T03:55:53.157Z,1013.45
2019-04-22T03:57:26.554Z,1013.45
2019-04-22T03:58:56.939Z,1013.45
2019-04-22T04:02:15.555Z,1013.44
2019-04-22T04:02:56.062Z,1013.45
2019-04-22T04:04:02.979Z,1013.43
2019-04-22T04:04:49.529Z,1013.38
2019-04-22T04:05:57.640Z,1013.40
2019-04-22T04:08:53.289Z,1013.37
2019-04-22T04:09:59.335Z,1013.35
2019-04-22T04:10:53.236Z,1013.35
2019-04-22T04:12:58.141Z,1013.34
2019-04-22T04:14:01.757Z,1013.36
2019-04-22T04:15:05.220Z,1013.36
2019-04-22T04:15:52.604Z,1013.30
2019-04-22T04:16:56.438Z,1013.31
2019-04-22T04:17:51.457Z,1013.32
2019-04-22T04:20:05.500Z,1013.28
2019-04-22T04:21:09.265Z,1013.26
2019-04-22T04:21:50.452Z,1013.30
2019-04-22T04:23:04.852Z,1013.25
2019-04-22T04:24:25.795Z,1013.26
2019-04-22T04:25:52.051Z,1013.21
2019-04-22T04:27:20.067Z,1013.24
2019-04-22T04:30:14.438Z,1013.18
2019-04-22T04:30:48.777Z,1013.16
2019-04-22T04:32:56.710Z,1013.19
2019-04-22T04:34:00.445Z,1013.19
2019-04-22T04:36:01.822Z,1013.18
2019-04-22T04:37:18.423Z,1013.17
2019-04-22T04:38:58.403Z,1013.13
2019-04-22T04:40:48.964Z,1013.12
2019-04-22T04:42:55.763Z,1013.16
2019-04-22T04:44:11.192Z,1013.12
2019-04-22T04:45:16.382Z,1013.14
2019-04-22T04:47:06.013Z,1013.16
2019-04-22T04:48:02.557Z,1013.14
2019-04-22T04:49:00.435Z,1013.14
2019-04-22T04:53:06.298Z,1013.15
2019-04-22T04:54:01.218Z,1013.18
2019-04-22T04:55:18.532Z,1013.18
2019-04-22T04:55:53.274Z,1013.21
2019-04-22T04:56:51.355Z,1013.14
2019-04-22T05:00:25.796Z,1013.15
2019-04-22T05:01:52.556Z,1013.12
2019-04-22T05:02:52.270Z,1013.14
2019-04-22T05:04:00.227Z,1013.12
2019-04-22T05:05:50.577Z,1013.16
2019-04-22T05:09:53.177Z,1013.16
2019-04-22T05:11:05.587Z,1013.14
2019-04-22T05:12:12.479Z,1013.13
2019-04-22T05:15:00.832Z,1013.19
2019-04-22T05:15:59.762Z,1013.15
2019-04-22T05:17:57.823Z,1013.18
2019-04-22T05:18:50.922Z,1013.13
2019-04-22T05:19:50.245Z,1013.18
2019-04-22T05:20:59.723Z,1013.17
2019-04-22T05:21:55.902Z,1013.18
2019-04-22T05:22:44.793Z,1013.17
2019-04-22T05:25:05.970Z,1013.25
2019-04-22T05:25:40.672Z,1013.27
2019-04-22T05:26:52.395Z,1013.36
2019-04-22T05:27:45.358Z,1013.47
2019-04-22T05:28:48.143Z,1013.42
2019-04-22T05:30:03.758Z,1013.45
2019-04-22T05:30:39.522Z,1013.47
2019-04-22T05:31:52.242Z,1013.49
2019-04-22T05:33:02.985Z,1013.52
2019-04-22T05:33:48.430Z,1013.49
2019-04-22T05:34:48.411Z,1013.54
2019-04-22T05:35:46.426Z,1013.53
2019-04-22T05:36:49.427Z,1013.54
2019-04-22T05:37:50.273Z,1013.55
2019-04-22T05:38:46.281Z,1013.58
2019-04-22T05:39:42.490Z,1013.60
2019-04-22T05:40:45.184Z,1013.57
2019-04-22T05:41:48.297Z,1013.64
2019-04-22T05:42:42.685Z,1013.63
2019-04-22T05:45:08.247Z,1013.55
2019-04-22T05:45:44.494Z,1013.57
2019-04-22T05:46:39.295Z,1013.56
2019-04-22T05:47:46.177Z,1013.63
2019-04-22T05:48:51.941Z,1013.63
2019-04-22T05:49:41.606Z,1013.64
2019-04-22T05:50:45.091Z,1013.73
2019-04-22T05:51:42.331Z,1013.81
2019-04-22T05:52:43.141Z,1013.65
2019-04-22T05:53:32.527Z,1013.56
2019-04-22T05:54:48.707Z,1013.49
2019-04-22T05:55:46.901Z,1013.69
2019-04-22T05:56:40.767Z,1013.71
2019-04-22T05:57:47.180Z,1013.84
2019-04-22T05:58:54.113Z,1014.05
2019-04-22T05:59:45.762Z,1014.17
2019-04-22T06:01:14.414Z,1013.97
2019-04-22T06:01:51.555Z,1013.55
2019-04-22T06:04:45.069Z,1013.54
2019-04-22T06:05:47.627Z,1013.54
2019-04-22T06:06:44.946Z,1013.46
2019-04-22T06:07:38.714Z,1013.40
2019-04-22T06:08:48.673Z,1013.53
2019-04-22T06:09:43.359Z,1013.59
2019-04-22T06:10:50.384Z,1013.39
2019-04-22T06:11:48.564Z,1013.67
2019-04-22T06:12:38.917Z,1013.94
2019-04-22T06:13:40.461Z,1013.94
2019-04-22T06:14:38.882Z,1013.70
2019-04-22T06:15:37.236Z,1013.73
2019-04-22T06:16:44.363Z,1013.99
2019-04-22T06:17:47.308Z,1014.01
2019-04-22T06:18:38.648Z,1013.92
2019-04-22T06:19:47.507Z,1013.78
2019-04-22T06:20:50.076Z,1013.83
2019-04-22T06:21:46.308Z,1013.75
2019-04-22T06:23:46.395Z,1013.74
2019-04-22T06:24:42.017Z,1013.71
2019-04-22T06:26:54.412Z,1013.57
2019-04-22T06:27:49.589Z,1013.63
2019-04-22T06:29:41.856Z,1013.48
2019-04-22T06:30:54.609Z,1013.38
2019-04-22T06:32:15.294Z,1013.45
2019-04-22T06:32:40.218Z,1013.51
2019-04-22T06:33:48.406Z,1013.57
2019-04-22T06:34:42.181Z,1013.45
2019-04-22T06:35:48.664Z,1013.38
2019-04-22T06:36:46.413Z,1013.40
2019-04-22T06:37:55.498Z,1013.44
2019-04-22T06:38:46.673Z,1013.33
2019-04-22T06:39:45.262Z,1013.26
2019-04-22T06:40:46.578Z,1013.37
2019-04-22T06:41:50.581Z,1013.46
2019-04-22T06:42:49.983Z,1013.53
2019-04-22T06:43:43.283Z,1013.59
2019-04-22T06:44:47.840Z,1013.53
2019-04-22T06:45:41.572Z,1013.52
2019-04-22T06:46:47.455Z,1013.59
2019-04-22T06:48:44.112Z,1013.47
2019-04-22T06:49:41.906Z,1013.41
2019-04-22T06:50:52.800Z,1013.48
2019-04-22T06:51:46.836Z,1013.51
2019-04-22T06:52:50.272Z,1013.38
2019-04-22T06:53:41.149Z,1013.23
2019-04-22T06:55:05.968Z,1013.23
2019-04-22T06:55:47.083Z,1013.30
2019-04-22T06:56:43.155Z,1013.34
2019-04-22T06:57:43.471Z,1013.41
2019-04-22T06:58:46.068Z,1013.47
2019-04-22T06:59:49.872Z,1013.49
2019-04-22T07:00:42.846Z,1013.55
2019-04-22T07:01:43.271Z,1013.56
2019-04-22T07:02:57.812Z,1013.56
2019-04-22T07:03:50.531Z,1013.48
2019-04-22T07:04:44.956Z,1013.46
2019-04-22T07:05:59.998Z,1013.45
2019-04-22T07:06:48.313Z,1013.43
2019-04-22T07:07:51.908Z,1013.52
2019-04-22T07:09:49.721Z,1013.48
2019-04-22T07:11:04.592Z,1013.39
2019-04-22T07:11:43.762Z,1013.38
2019-04-22T07:12:41.883Z,1013.36
2019-04-22T07:13:43.001Z,1013.38
2019-04-22T07:14:47.484Z,1013.35
2019-04-22T07:16:05.288Z,1013.23
2019-04-22T07:16:49.804Z,1013.13
2019-04-22T07:17:50.835Z,1013.14
2019-04-22T07:18:44.785Z,1013.11
2019-04-22T07:19:45.428Z,1013.16
2019-04-22T07:20:44.242Z,1013.16
2019-04-22T07:21:46.910Z,1013.21
2019-04-22T07:22:41.718Z,1013.30
2019-04-22T07:24:17.840Z,1013.23
2019-04-22T07:24:45.852Z,1013.20
2019-04-22T07:25:40.717Z,1013.19
2019-04-22T07:26:45.114Z,1013.29
2019-04-22T07:27:40.628Z,1013.34
2019-04-22T07:28:37.265Z,1013.31
2019-04-22T07:29:46.889Z,1013.36
2019-04-22T07:31:02.427Z,1013.39
2019-04-22T07:31:42.805Z,1013.36
2019-04-22T07:33:04.514Z,1013.43
2019-04-22T07:33:43.815Z,1013.45
2019-04-22T07:34:46.138Z,1013.44
2019-04-22T07:37:43.572Z,1013.25
2019-04-22T07:38:36.166Z,1013.23
2019-04-22T07:39:44.239Z,1013.23
2019-04-22T07:40:45.638Z,1013.26
2019-04-22T07:41:49.438Z,1013.29
2019-04-22T07:42:41.736Z,1013.15
2019-04-22T07:43:59.755Z,1013.16
2019-04-22T07:44:44.700Z,1013.17
2019-04-22T07:45:42.734Z,1013.14
2019-04-22T07:46:50.083Z,1013.12
2019-04-22T07:47:49.932Z,1013.12
2019-04-22T07:49:43.364Z,1013.16
2019-04-22T07:51:44.657Z,1013.07
2019-04-22T07:52:41.453Z,1013.07
2019-04-22T07:53:45.423Z,1013.06
2019-04-22T07:54:47.965Z,1013.05
2019-04-22T07:55:38.184Z,1013.13
2019-04-22T07:56:48.623Z,1013.11
2019-04-22T07:57:44.463Z,1013.09
2019-04-22T07:58:42.105Z,1013.09
2019-04-22T07:59:45.586Z,1013.12
2019-04-22T08:00:38.563Z,1013.16
2019-04-22T08:01:47.146Z,1013.12
2019-04-22T08:02:44.096Z,1013.09
2019-04-22T08:03:53.348Z,1013.08
2019-04-22T08:04:54.234Z,1013.02
2019-04-22T08:05:51.589Z,1013.03
2019-04-22T08:06:46.361Z,1013.02
2019-04-22T08:07:46.790Z,1013.00
2019-04-22T08:08:45.680Z,1012.98
2019-04-22T08:09:50.977Z,1013.05
2019-04-22T08:10:49.228Z,1013.03
2019-04-22T08:12:47.282Z,1013.03
2019-04-22T08:13:42.495Z,1013.07
2019-04-22T08:15:51.307Z,1013.09
2019-04-22T08:16:43.962Z,1013.07
2019-04-22T08:18:05.039Z,1012.99
2019-04-22T08:18:39.538Z,1012.93
2019-04-22T08:19:44.744Z,1012.97
2019-04-22T08:20:44.096Z,1012.93
2019-04-22T08:21:46.322Z,1012.97
2019-04-22T08:22:45.136Z,1013.05
2019-04-22T08:23:46.538Z,1013.08
2019-04-22T08:24:51.463Z,1013.08
2019-04-22T08:25:43.128Z,1013.11
2019-04-22T08:27:42.859Z,1013.03
2019-04-22T08:28:45.801Z,1013.06
2019-04-22T08:29:54.682Z,1013.05
2019-04-22T08:31:40.053Z,1013.11
2019-04-22T08:32:41.723Z,1013.09
2019-04-22T08:33:44.516Z,1013.09
2019-04-22T08:34:42.541Z,1013.06
2019-04-22T08:36:58.756Z,1012.94
2019-04-22T08:37:51.232Z,1012.94
2019-04-22T08:38:48.725Z,1012.89
2019-04-22T08:39:40.632Z,1012.89
2019-04-22T08:40:56.132Z,1012.90
2019-04-22T08:41:37.534Z,1013.05
2019-04-22T08:42:50.029Z,1013.09
2019-04-22T08:45:04.770Z,1012.89
2019-04-22T08:45:46.144Z,1012.85
2019-04-22T08:46:44.301Z,1012.84
2019-04-22T08:47:41.580Z,1012.86
2019-04-22T08:48:48.125Z,1012.86
2019-04-22T08:49:50.272Z,1012.97
2019-04-22T08:50:47.033Z,1012.95
2019-04-22T08:51:56.219Z,1012.93
2019-04-22T08:52:40.645Z,1012.84
2019-04-22T08:53:48.260Z,1013.02
2019-04-22T08:54:43.689Z,1012.95
2019-04-22T08:55:47.877Z,1012.89
2019-04-22T08:56:46.054Z,1012.73
2019-04-22T08:58:04.893Z,1012.71
2019-04-22T08:58:42.221Z,1012.73
2019-04-22T08:59:46.592Z,1012.74
2019-04-22T09:00:51.346Z,1012.72
2019-04-22T09:01:37.819Z,1012.74
2019-04-22T09:02:49.874Z,1012.83
2019-04-22T09:03:49.264Z,1013.00
2019-04-22T09:04:42.125Z,1013.08
2019-04-22T09:05:57.756Z,1013.07
2019-04-22T09:08:01.465Z,1013.05
2019-04-22T09:08:45.287Z,1012.99
2019-04-22T09:09:47.260Z,1012.94
2019-04-22T09:10:46.807Z,1013.08
2019-04-22T09:12:58.033Z,1013.07
2019-04-22T09:13:45.161Z,1013.04
2019-04-22T09:14:43.419Z,1013.04
2019-04-22T09:15:45.464Z,1013.05
2019-04-22T09:16:44.738Z,1013.03
2019-04-22T09:17:40.313Z,1013.03
2019-04-22T09:18:45.951Z,1013.01
2019-04-22T09:19:40.388Z,1013.03
2019-04-22T09:20:48.695Z,1013.00
2019-04-22T09:21:50.651Z,1013.01
2019-04-22T09:22:42.677Z,1013.02
2019-04-22T09:23:44.406Z,1012.99
2019-04-22T09:24:44.167Z,1012.96
2019-04-22T09:25:41.895Z,1012.99
2019-04-22T09:26:43.194Z,1012.97
2019-04-22T09:27:47.926Z,1012.94
2019-04-22T09:28:44.737Z,1013.01
2019-04-22T09:30:51.386Z,1012.91
2019-04-22T09:31:46.627Z,1012.91
2019-04-22T09:32:44.844Z,1012.93
2019-04-22T09:33:38.612Z,1012.87
2019-04-22T09:34:43.303Z,1012.88
2019-04-22T09:35:45.050Z,1012.87
2019-04-22T09:36:41.524Z,1012.86
2019-04-22T09:38:45.053Z,1012.82
2019-04-22T09:39:41.382Z,1012.76
2019-04-22T09:40:43.229Z,1012.70
2019-04-22T09:41:46.689Z,1012.70
2019-04-22T09:42:45.444Z,1012.70
2019-04-22T09:43:50.839Z,1012.69
2019-04-22T09:44:40.384Z,1012.70
2019-04-22T09:45:43.417Z,1012.63
2019-04-22T09:46:41.016Z,1012.63
2019-04-22T09:47:53.866Z,1012.64
2019-04-22T09:48:46.410Z,1012.57
2019-04-22T09:49:51.822Z,1012.64
2019-04-22T09:50:43.283Z,1012.63
2019-04-22T09:51:48.526Z,1012.65
2019-04-22T09:52:43.573Z,1012.62
2019-04-22T09:53:49.769Z,1012.62
2019-04-22T09:54:50.957Z,1012.62
2019-04-22T09:55:43.042Z,1012.57
2019-04-22T09:56:43.951Z,1012.56
2019-04-22T09:57:43.178Z,1012.57
2019-04-22T09:58:46.304Z,1012.60
2019-04-22T09:59:48.456Z,1012.51
2019-04-22T10:00:43.999Z,1012.50
2019-04-22T10:01:50.365Z,1012.47
2019-04-22T10:02:48.941Z,1012.48
2019-04-22T10:03:44.737Z,1012.42
2019-04-22T10:04:39.840Z,1012.45
2019-04-22T10:05:49.857Z,1012.38
2019-04-22T10:06:37.583Z,1012.44
2019-04-22T10:07:43.224Z,1012.37
2019-04-22T10:08:52.946Z,1012.34
2019-04-22T10:10:41.772Z,1012.37
2019-04-22T10:12:42.609Z,1012.37
2019-04-22T10:13:48.000Z,1012.36
2019-04-22T10:14:48.017Z,1012.32
2019-04-22T10:15:39.665Z,1012.34
2019-04-22T10:16:43.742Z,1012.35
2019-04-22T10:17:47.785Z,1012.31
2019-04-22T10:19:40.897Z,1012.32
2019-04-22T10:21:44.677Z,1012.22
2019-04-22T10:22:46.194Z,1012.22
2019-04-22T10:23:45.433Z,1012.19
2019-04-22T10:24:43.251Z,1012.19
2019-04-22T10:25:47.323Z,1012.20
2019-04-22T10:27:46.260Z,1012.14
2019-04-22T10:28:44.477Z,1012.16
2019-04-22T10:29:47.256Z,1012.15
2019-04-22T10:30:47.131Z,1012.12
2019-04-22T10:31:43.323Z,1012.08
2019-04-22T10:32:46.183Z,1012.10
2019-04-22T10:33:36.279Z,1012.09
2019-04-22T10:34:26.977Z,1012.08
2019-04-22T10:35:19.904Z,1012.06
2019-04-22T10:36:17.281Z,1012.06
2019-04-22T10:37:19.012Z,1012.00
2019-04-22T10:38:16.643Z,1012.06
2019-04-22T10:39:16.350Z,1012.01
2019-04-22T10:40:17.762Z,1011.99
2019-04-22T10:41:16.724Z,1011.96
2019-04-22T10:42:17.467Z,1011.95
2019-04-22T10:43:17.049Z,1011.89
2019-04-22T10:44:17.127Z,1011.92
2019-04-22T10:45:16.583Z,1011.93
2019-04-22T10:46:17.961Z,1011.95
2019-04-22T10:47:16.337Z,1011.89
2019-04-22T10:48:16.512Z,1011.92
2019-04-22T10:49:16.336Z,1011.91
2019-04-22T10:50:16.607Z,1011.85
2019-04-22T10:51:16.901Z,1011.87
2019-04-22T10:52:16.570Z,1011.85
2019-04-22T10:53:17.605Z,1011.81
2019-04-22T10:54:17.651Z,1011.82
2019-04-22T10:55:17.253Z,1011.76
2019-04-22T10:56:16.946Z,1011.74
2019-04-22T10:57:16.337Z,1011.75
2019-04-22T10:58:16.951Z,1011.77
2019-04-22T10:59:16.528Z,1011.75
2019-04-22T11:00:17.568Z,1011.69
2019-04-22T11:01:17.790Z,1011.66
2019-04-22T11:02:17.327Z,1011.73
2019-04-22T11:03:16.342Z,1011.68
2019-04-22T11:04:17.437Z,1011.66
2019-04-22T11:05:16.740Z,1011.58
2019-04-22T11:06:17.119Z,1011.54
2019-04-22T11:07:17.345Z,1011.50
2019-04-22T11:08:26.054Z,1011.49
2019-04-22T11:09:16.462Z,1011.45
2019-04-22T11:10:34.872Z,1011.53
2019-04-22T11:11:31.540Z,1011.44
2019-04-22T11:12:20.618Z,1011.44
2019-04-22T11:13:17.853Z,1011.39
2019-04-22T11:14:16.845Z,1011.39
2019-04-22T11:15:16.342Z,1011.30
2019-04-22T11:16:17.454Z,1011.33
2019-04-22T11:17:17.681Z,1011.32
2019-04-22T11:18:17.688Z,1011.31
2019-04-22T11:19:17.355Z,1011.29
2019-04-22T11:20:17.569Z,1011.27
2019-04-22T11:21:17.805Z,1011.21
2019-04-22T11:22:22.080Z,1011.25
2019-04-22T11:23:16.481Z,1011.16
2019-04-22T11:24:16.841Z,1011.19
2019-04-22T11:25:16.331Z,1011.18
2019-04-22T11:26:17.628Z,1011.09
2019-04-22T11:27:16.971Z,1011.11
2019-04-22T11:28:17.844Z,1011.15
2019-04-22T11:29:17.399Z,1011.13
2019-04-22T11:30:20.017Z,1011.13
2019-04-22T11:31:16.667Z,1011.08
2019-04-22T11:32:16.333Z,1011.11
2019-04-22T11:33:16.457Z,1011.11
2019-04-22T11:34:17.197Z,1011.08
2019-04-22T11:35:16.325Z,1011.13
2019-04-22T11:36:17.491Z,1011.06
2019-04-22T11:37:16.637Z,1011.12
2019-04-22T11:38:17.280Z,1011.04
2019-04-22T11:39:17.016Z,1011.02
2019-04-22T11:40:24.035Z,1011.03
2019-04-22T11:41:16.836Z,1010.95
2019-04-22T11:42:16.432Z,1010.91
2019-04-22T11:43:16.489Z,1010.92
2019-04-22T11:44:17.140Z,1010.86
2019-04-22T11:45:17.451Z,1010.90
2019-04-22T11:46:17.633Z,1010.88
2019-04-22T11:47:17.169Z,1010.89
2019-04-22T11:48:17.620Z,1010.91
2019-04-22T11:49:16.406Z,1010.86
2019-04-22T11:50:17.409Z,1010.98
2019-04-22T11:51:16.307Z,1010.81
2019-04-22T11:52:17.282Z,1010.77
2019-04-22T11:53:16.737Z,1010.81
2019-04-22T11:54:16.965Z,1010.70
2019-04-22T11:55:17.060Z,1010.69
2019-04-22T11:56:16.836Z,1010.78
2019-04-22T11:57:17.047Z,1010.76
2019-04-22T11:58:17.027Z,1010.72
2019-04-22T11:59:16.296Z,1010.68
2019-04-22T12:00:16.862Z,1010.65
2019-04-22T12:01:16.896Z,1010.61
2019-04-22T12:02:18.062Z,1010.70
2019-04-22T12:03:16.859Z,1010.63
2019-04-22T12:04:16.289Z,1010.62
2019-04-22T12:05:17.505Z,1010.61
2019-04-22T12:06:17.808Z,1010.62
2019-04-22T12:07:17.163Z,1010.67
2019-04-22T12:08:17.347Z,1010.61
2019-04-22T12:09:17.603Z,1010.61
2019-04-22T12:10:27.234Z,1010.63
2019-04-22T12:11:16.608Z,1010.53
2019-04-22T12:12:16.274Z,1010.53
2019-04-22T12:13:17.783Z,1010.61
2019-04-22T12:14:16.272Z,1010.60
2019-04-22T12:15:16.922Z,1010.60
2019-04-22T12:16:17.161Z,1010.62
2019-04-22T12:17:16.261Z,1010.61
2019-04-22T12:18:17.312Z,1010.64
2019-04-22T12:19:16.257Z,1010.59
2019-04-22T12:20:17.989Z,1010.60
2019-04-22T12:21:17.110Z,1010.61
2019-04-22T12:22:17.329Z,1010.57
2019-04-22T12:23:17.032Z,1010.58
2019-04-22T12:24:17.216Z,1010.61
2019-04-22T12:25:30.003Z,1010.48
2019-04-22T12:26:19.033Z,1010.47
2019-04-22T12:27:18.619Z,1010.61
2019-04-22T12:28:17.202Z,1010.50
2019-04-22T12:29:17.177Z,1010.45
2019-04-22T12:30:16.702Z,1010.45
2019-04-22T12:31:17.501Z,1010.41
2019-04-22T12:32:17.681Z,1010.49
2019-04-22T12:33:17.047Z,1010.39
2019-04-22T12:34:17.315Z,1010.39
2019-04-22T12:35:17.641Z,1010.40
2019-04-22T12:36:16.211Z,1010.37
2019-04-22T12:37:27.426Z,1010.28
2019-04-22T12:38:16.987Z,1010.25
2019-04-22T12:39:17.707Z,1010.27
2019-04-22T12:40:29.360Z,1010.26
2019-04-22T12:41:17.804Z,1010.13
2019-04-22T12:42:17.463Z,1010.15
2019-04-22T12:43:18.603Z,1010.17
2019-04-22T12:44:16.185Z,1010.13
2019-04-22T12:45:16.345Z,1010.12
2019-04-22T12:46:16.420Z,1010.17
2019-04-22T12:47:16.177Z,1010.10
2019-04-22T12:48:17.084Z,1010.07
2019-04-22T12:49:16.409Z,1010.01
2019-04-22T12:50:22.442Z,1010.08
2019-04-22T12:51:16.160Z,1010.08
2019-04-22T12:52:24.071Z,1010.09
2019-04-22T12:53:18.809Z,1010.09
2019-04-22T12:54:17.099Z,1010.07
2019-04-22T12:55:17.427Z,1010.03
2019-04-22T12:56:17.417Z,1010.02
2019-04-22T12:57:16.840Z,1010.06
2019-04-22T12:58:16.133Z,1010.05
2019-04-22T12:59:17.291Z,1010.01
2019-04-22T13:00:17.551Z,1009.98
2019-04-22T13:01:16.998Z,1009.97
2019-04-22T13:02:16.117Z,1010.01
2019-04-22T13:03:16.113Z,1010.02
2019-04-22T13:04:19.475Z,1009.84
2019-04-22T13:05:16.366Z,1009.92
2019-04-22T13:06:17.493Z,1009.99
2019-04-22T13:07:16.097Z,1009.69
2019-04-22T13:08:16.091Z,1009.79
2019-04-22T13:09:17.761Z,1009.96
2019-04-22T13:10:16.079Z,1009.92
2019-04-22T13:11:19.660Z,1009.44
2019-04-22T13:12:17.188Z,1009.16
2019-04-22T13:13:16.064Z,1008.87
2019-04-22T13:14:16.815Z,1009.05
2019-04-22T13:15:16.120Z,1009.61
2019-04-22T13:16:17.475Z,1010.13
2019-04-22T13:17:17.122Z,1010.22
2019-04-22T13:18:27.000Z,1010.36
2019-04-22T13:19:18.902Z,1010.40
2019-04-22T13:20:18.238Z,1010.54
2019-04-22T13:21:16.021Z,1010.16
2019-04-22T13:22:16.947Z,1009.31
2019-04-22T13:23:16.010Z,1008.88
2019-04-22T13:24:19.530Z,1008.79
2019-04-22T13:25:15.997Z,1008.74
2019-04-22T13:26:16.950Z,1008.69
2019-04-22T13:27:17.215Z,1008.63
2019-04-22T13:28:15.981Z,1008.65
2019-04-22T13:29:16.878Z,1008.67
2019-04-22T13:30:16.400Z,1008.64
2019-04-22T13:31:17.767Z,1008.61
2019-04-22T13:32:16.572Z,1008.63
2019-04-22T13:33:16.818Z,1008.62
2019-04-22T13:34:21.600Z,1008.60